Aérodrome :







RETROUVEZ-NOUS SUR...

 
LOGIN :

S'inscrire | Disclaimer

   EN    FR    IT 

 









Légende :    VFR   VFR Marginal   IFR   IFR Intensif   IFR Très Intensif
Visi : 
Plafond : 
>= 8 km
>= 3000ft
5 à 8 km
1000 à 3000 ft
1500m à 5 km
500 à 1000 ft
800 à 1500m
200 à 500 ft
< 800m
< 200 ft
Symboles :   Orages  Brouillard  Fortes neiges  Fortes précipitations  Vent > 20 kt






- Altitude de l'aérodrome : 881 ft


KNY0 - Fulton County

DERNIER METAR :
  • 071916Z AUTO 15009KT 10SM CLR 27/22 A3005 RMK AO2

METARs EXPIRÉS :
  • 071856Z AUTO 14012G15KT 10SM SCT039 SCT080 27/22 A3005 RMK AO2
  • 071836Z AUTO 15008KT 10SM SCT028 BKN037 BKN043 27/23 A3006 RMK AO2
  • 071818Z AUTO 15010KT 10SM BKN028 BKN037 27/23 A3006 RMK AO2
  • 071756Z AUTO 13007KT 10SM OVC028 27/23 A3007 RMK AO2
  • 071736Z AUTO 14005KT 10SM BKN026 26/22 A3007 RMK AO2
  • 071716Z AUTO 14010G14KT 10SM SCT024 26/22 A3006 RMK AO2
  • 071656Z AUTO 18007KT 10SM SCT024 26/22 A3007 RMK AO2
  • 071636Z AUTO 17004KT 10SM SCT024 26/21 A3008 RMK AO2

TAF N/A



MET'MAP, la Météo Aéronautique d'un coup d'oeil ! - Copyright ORBIFLY Décembre 2007 - Disclaimer

ORBIFLY MET'MAP TEAM :

Programmation & Développement : Alexandra Zaïnal
Sur une idée originale de : Baudouin d'Aumeries
Assistance à la programmation : Marc-Olivier Méhu
Soutien technique & logistique : Manuel Goepfert

Contact : metmap@orbifly.com




SOURCES & CREDITS :

   NOAA